Decoded Metar for OISY ( in _UNIDENTIFIED) (IATA:N/A) | Meteo·Mobile Aviation Weather
aviador You're here:

OISY Decoded Metar

in _UNIDENTIFIED
Report Time2019-01-19 06:00:00
UTC Time2019-01-19 06:31:31
Flight Rules vfr VFR
Wind140° at 04 kt
W.Decomp.*RWY 13: 4.0 kt HW 0.6 kt RCW
W.Rank140° ranks 14
Current wind is below 140° avg. (5.7)
Visibility9999 m
Phenomena:N/A
Clouds:Few 035 Hf
Expected CloudBase > 4,400 ft AGL from Temp-Dew spread
CeilingNone
Temp01°C
Dew Point-10°C (44% RH)
AAT-3.5°C
QNH1017 hPa
Raw Report
METAR OISY 190600Z 14004KT 9999 FEW035 01/M10 Q1017=

Extra information for OISY:More info

Metar Taf Metar & Taf Last 4 Metars F.Rules Stats Wind Profile Meteogram Temp Stats Metar ALERT Operation Metar Decoded Social comments